Time;durP1;ratioP1;P1;durP2;ratioP2;P2;SDS_P1;SDS_P2;PMS_P1;PMS_P2;Temp;Humidity;BMP_temperature;BMP_pressure;BME280_temperature;BME280_humidity;BME280_pressure;Samples;Min_cycle;Max_cycle;Signal;HPM_P1;HPM_P2
2021/01/30 00:08:35;;;;;;;76.17;36.87;;;;;;;-1.76;78.25;96546.03;506056;1149;102302;-40
2021/01/30 00:18:39;;;;;;;82.83;38.33;;;;;;;-1.82;78.24;96528.72;506160;1149;102682;-39
2021/01/30 00:28:45;;;;;;;88.13;36.70;;;;;;;-1.78;78.50;96530.70;504774;1149;104212;-39
2021/01/30 00:39:05;;;;;;;83.03;37.63;;;;;;;-1.80;78.01;96531.90;506099;1149;102376;-40
2021/01/30 00:49:10;;;;;;;100.13;44.33;;;;;;;-1.83;78.17;96534.90;506139;1149;102351;-39
2021/01/30 00:59:14;;;;;;;102.93;43.77;;;;;;;-1.91;78.44;96536.69;506067;1149;102633;-40
2021/01/30 01:09:20;;;;;;;103.17;45.23;;;;;;;-1.78;78.55;96528.10;504759;1149;102445;-39
2021/01/30 01:19:25;;;;;;;97.17;45.53;;;;;;;-1.93;78.22;96528.32;506069;1148;103119;-39
2021/01/30 01:29:29;;;;;;;105.83;48.40;;;;;;;-1.89;78.20;96520.97;504672;1149;102301;-39
2021/01/30 01:39:58;;;;;;;87.95;41.37;;;;;;;-1.74;78.51;96518.92;504438;1151;102251;-39
2021/01/30 01:50:08;;;;;;;100.43;44.03;;;;;;;-1.80;78.47;96513.77;506071;1149;102576;-39
2021/01/30 02:00:15;;;;;;;87.27;41.10;;;;;;;-2.14;78.49;96497.48;506088;1149;102519;-39
2021/01/30 02:10:24;;;;;;;90.57;44.53;;;;;;;-2.32;78.15;96490.35;506064;1149;103259;-40
2021/01/30 02:31:06;;;;;;;112.60;48.63;;;;;;;-2.34;78.80;96481.20;505383;1149;102117;-39
2021/01/30 02:41:14;;;;;;;86.30;43.70;;;;;;;-2.40;78.32;96474.21;506083;1149;102354;-39
2021/01/30 02:51:21;;;;;;;91.70;46.53;;;;;;;-2.37;78.72;96463.45;506060;1149;102084;-39
2021/01/30 03:01:27;;;;;;;111.80;51.60;;;;;;;-2.33;79.38;96449.14;506041;1149;103149;-39
2021/01/30 03:11:37;;;;;;;92.07;47.70;;;;;;;-2.31;78.49;96453.11;506051;1149;102358;-39
2021/01/30 03:21:43;;;;;;;91.07;43.30;;;;;;;-2.38;79.15;96439.37;505961;1149;102000;-40
2021/01/30 03:31:48;;;;;;;87.97;43.07;;;;;;;-2.35;79.12;96438.99;506013;1149;102447;-39
2021/01/30 03:41:53;;;;;;;99.63;44.73;;;;;;;-2.35;78.98;96423.46;506070;1149;102542;-39
2021/01/30 03:51:58;;;;;;;75.47;37.77;;;;;;;-2.40;79.18;96414.69;506101;1149;103162;-39
2021/01/30 04:02:05;;;;;;;81.00;36.93;;;;;;;-2.47;79.84;96397.39;506072;1149;102496;-39
2021/01/30 04:12:10;;;;;;;92.40;42.17;;;;;;;-2.57;79.19;96365.97;506127;1149;102364;-39
2021/01/30 04:22:15;;;;;;;86.37;38.27;;;;;;;-2.62;80.01;96341.69;505794;1149;102411;-39
2021/01/30 04:32:20;;;;;;;80.13;37.50;;;;;;;-2.66;79.40;96325.77;506088;1149;102566;-39
2021/01/30 04:42:33;;;;;;;73.97;37.27;;;;;;;-2.74;79.89;96323.41;506073;1149;103172;-39
2021/01/30 04:52:47;;;;;;;76.73;36.50;;;;;;;-2.68;80.00;96340.70;506099;1149;102505;-39
2021/01/30 05:02:53;;;;;;;77.33;38.80;;;;;;;-2.65;80.54;96335.13;506074;1149;102524;-39
2021/01/30 05:13:02;;;;;;;80.73;42.17;;;;;;;-2.66;79.87;96330.16;506019;1149;102994;-39
2021/01/30 05:23:11;;;;;;;76.23;39.87;;;;;;;-2.68;80.29;96307.08;505715;1149;102678;-39
2021/01/30 05:33:27;;;;;;;81.90;41.03;;;;;;;-2.75;80.98;96300.34;506053;1150;103173;-39
2021/01/30 05:43:39;;;;;;;76.37;37.93;;;;;;;-2.70;80.96;96287.59;505444;1149;102364;-39
2021/01/30 05:53:44;;;;;;;94.40;44.80;;;;;;;-2.71;81.06;96273.86;506074;1150;102487;-39
2021/01/30 06:03:59;;;;;;;78.33;38.87;;;;;;;-2.74;81.10;96284.62;506079;1149;102329;-40
2021/01/30 06:14:04;;;;;;;82.63;41.77;;;;;;;-2.80;80.92;96257.78;506138;1149;102706;-39
2021/01/30 06:24:12;;;;;;;85.33;41.10;;;;;;;-2.74;80.73;96238.06;505557;1149;102943;-39
2021/01/30 06:34:18;;;;;;;85.27;43.23;;;;;;;-2.68;81.15;96228.69;506059;1149;102147;-39
2021/01/30 06:44:27;;;;;;;80.10;39.53;;;;;;;-2.68;80.90;96228.69;506135;1149;102009;-39
2021/01/30 07:05:06;;;;;;;82.03;42.37;;;;;;;-2.58;81.06;96216.12;506102;1149;102565;-39
2021/01/30 07:15:18;;;;;;;78.70;40.10;;;;;;;-2.65;81.50;96216.12;506116;1149;102765;-39
2021/01/30 07:25:28;;;;;;;79.50;39.93;;;;;;;-2.65;81.96;96226.48;505371;1149;102406;-39
2021/01/30 07:35:38;;;;;;;68.50;36.17;;;;;;;-2.64;81.96;96220.30;506142;1149;102600;-39
2021/01/30 07:46:10;;;;;;;78.77;37.80;;;;;;;-2.58;81.84;96224.67;504565;1151;102028;-39
2021/01/30 07:56:27;;;;;;;65.80;35.20;;;;;;;-2.60;81.58;96224.09;506124;1149;102032;-40
2021/01/30 08:17:06;;;;;;;61.70;32.17;;;;;;;-2.62;82.35;96223.47;506102;1150;102509;-39
2021/01/30 08:27:17;;;;;;;67.03;33.30;;;;;;;-2.54;82.23;96212.91;505044;1149;102331;-40
2021/01/30 08:37:39;;;;;;;51.20;28.50;;;;;;;-2.51;82.53;96247.92;506058;1149;102350;-40
2021/01/30 08:48:21;;;;;;;64.93;30.40;;;;;;;-2.38;81.86;96278.91;506086;1149;102007;-39
2021/01/30 08:58:48;;;;;;;60.93;31.40;;;;;;;-2.34;82.32;96289.67;506072;1149;103160;-39
2021/01/30 09:09:05;;;;;;;64.10;34.50;;;;;;;-2.56;82.18;96340.89;504561;1153;102353;-40
2021/01/30 09:19:22;;;;;;;58.83;28.33;;;;;;;-2.61;82.75;96366.55;506161;1149;102354;-39
2021/01/30 09:29:35;;;;;;;41.57;21.70;;;;;;;-2.77;82.91;96411.77;504697;1149;102383;-39
2021/01/30 09:39:40;;;;;;;36.90;18.97;;;;;;;-2.70;83.02;96415.12;506139;1149;102408;-39
2021/01/30 09:49:47;;;;;;;38.83;18.37;;;;;;;-2.58;82.96;96442.00;506043;1149;104231;-39
2021/01/30 09:59:56;;;;;;;38.27;16.93;;;;;;;-2.35;82.66;96464.08;506091;1149;102522;-39
2021/01/30 10:10:02;;;;;;;35.17;18.12;;;;;;;-2.39;82.05;96504.27;506113;1149;102339;-39
2021/01/30 10:20:13;;;;;;;44.83;21.00;;;;;;;-2.39;82.32;96535.33;506083;1149;102150;-40
2021/01/30 10:30:22;;;;;;;51.57;23.37;;;;;;;-2.23;82.40;96532.34;504643;1149;102551;-40
2021/01/30 10:40:32;;;;;;;53.77;26.27;;;;;;;-1.85;82.07;96561.00;506096;1149;103191;-38
2021/01/30 10:50:41;;;;;;;56.73;23.03;;;;;;;-2.03;82.36;96599.66;506180;1149;102453;-38
2021/01/30 11:00:58;;;;;;;47.23;24.17;;;;;;;-2.20;81.74;96620.77;506092;1149;102519;-38
2021/01/30 11:11:05;;;;;;;51.77;23.63;;;;;;;-1.93;82.33;96623.36;506076;1149;102149;-38
2021/01/30 11:21:10;;;;;;;34.50;19.57;;;;;;;-1.65;81.78;96636.12;505954;1149;102378;-39
2021/01/30 11:31:17;;;;;;;37.43;21.63;;;;;;;-1.28;81.67;96663.16;505421;1149;103142;-38
2021/01/30 11:41:22;;;;;;;61.57;28.93;;;;;;;-1.21;80.80;96687.27;506089;1150;101996;-40
2021/01/30 11:51:29;;;;;;;63.50;31.70;;;;;;;-1.51;80.14;96699.88;506119;1149;102351;-39
2021/01/30 12:01:34;;;;;;;61.53;31.60;;;;;;;-1.79;80.87;96732.97;506113;1149;102463;-38
2021/01/30 12:11:39;;;;;;;57.30;27.20;;;;;;;-1.76;80.38;96735.96;506085;1149;102625;-38
2021/01/30 12:21:44;;;;;;;63.20;27.93;;;;;;;-1.94;80.49;96762.42;505839;1149;103072;-38
2021/01/30 12:31:49;;;;;;;72.10;33.13;;;;;;;-1.84;80.86;96769.04;506123;1149;102428;-39
2021/01/30 12:41:54;;;;;;;58.50;28.00;;;;;;;-1.78;80.11;96771.63;506141;1149;101997;-39
2021/01/30 12:51:58;;;;;;;58.43;27.10;;;;;;;-1.71;81.02;96777.61;506054;1149;102432;-38
2021/01/30 13:02:04;;;;;;;70.27;28.57;;;;;;;-1.71;80.84;96802.73;506137;1149;102537;-38
2021/01/30 13:12:10;;;;;;;92.50;41.23;;;;;;;-1.76;80.34;96816.28;506024;1149;103074;-38
2021/01/30 13:22:15;;;;;;;71.53;36.40;;;;;;;-1.76;80.78;96842.19;505841;1150;102323;-38
2021/01/30 13:32:20;;;;;;;62.33;30.03;;;;;;;-1.81;81.01;96848.95;506136;1149;102410;-39
2021/01/30 13:42:25;;;;;;;68.50;30.97;;;;;;;-1.89;81.13;96858.50;506107;1149;102330;-39
2021/01/30 13:52:55;;;;;;;49.67;23.33;;;;;;;-2.04;80.84;96869.99;504550;1151;101962;-39
2021/01/30 14:03:00;;;;;;;47.10;20.03;;;;;;;-2.06;80.17;96892.70;506082;1149;103279;-39
2021/01/30 14:13:05;;;;;;;56.13;24.43;;;;;;;-2.08;80.29;96905.84;506095;1149;102252;-39
2021/01/30 14:23:09;;;;;;;70.27;34.07;;;;;;;-2.11;81.01;96920.96;505580;1149;102332;-38
2021/01/30 14:33:14;;;;;;;69.43;33.00;;;;;;;-2.19;81.14;96948.59;506074;1149;102344;-39
2021/01/30 14:43:19;;;;;;;68.13;31.67;;;;;;;-2.23;81.28;96965.49;506132;1149;102353;-39
2021/01/30 14:53:23;;;;;;;68.20;30.97;;;;;;;-2.18;80.76;96985.64;506058;1149;103237;-39
2021/01/30 15:03:27;;;;;;;55.57;29.87;;;;;;;-2.19;80.67;96996.98;506135;1149;102340;-39
2021/01/30 15:13:33;;;;;;;53.73;25.47;;;;;;;-2.23;81.54;96995.77;506135;1150;102521;-38
2021/01/30 15:23:39;;;;;;;65.47;33.23;;;;;;;-2.29;81.14;97010.27;505599;1149;102096;-39
2021/01/30 15:33:44;;;;;;;68.67;34.43;;;;;;;-2.27;81.15;97017.84;506179;1149;102225;-39
2021/01/30 15:43:49;;;;;;;73.47;35.00;;;;;;;-2.23;81.61;97034.60;506027;1149;103166;-41
2021/01/30 15:53:54;;;;;;;77.65;37.10;;;;;;;-2.20;81.54;97049.75;506080;1149;102294;-39
2021/01/30 16:03:58;;;;;;;85.00;41.27;;;;;;;-2.04;81.35;97053.87;506103;1150;102044;-38
2021/01/30 16:14:21;;;;;;;104.13;49.93;;;;;;;-1.86;81.09;97067.95;506051;1150;102698;-38
2021/01/30 16:24:26;;;;;;;75.87;35.13;;;;;;;-1.89;80.87;97083.08;505511;1149;102595;-38
2021/01/30 16:34:31;;;;;;;80.13;37.17;;;;;;;-1.84;81.22;97087.69;505990;1149;103104;-38
2021/01/30 16:44:36;;;;;;;93.67;38.27;;;;;;;-1.95;81.49;97099.35;506119;1150;102431;-39
2021/01/30 16:54:43;;;;;;;130.00;49.23;;;;;;;-1.97;81.55;97114.28;506027;1150;101996;-38
2021/01/30 17:04:47;;;;;;;92.60;39.20;;;;;;;-2.01;81.23;97124.22;506109;1149;102338;-39
2021/01/30 17:14:52;;;;;;;105.40;43.50;;;;;;;-2.03;81.29;97138.34;506053;1150;102413;-38
2021/01/30 17:24:57;;;;;;;123.83;50.73;;;;;;;-2.06;80.99;97144.70;505377;1150;103313;-38
2021/01/30 17:35:02;;;;;;;120.47;46.97;;;;;;;-2.09;80.81;97150.26;506098;1149;102071;-39
2021/01/30 17:45:08;;;;;;;84.17;39.00;;;;;;;-2.15;80.74;97153.56;506101;1149;102549;-41
2021/01/30 17:55:14;;;;;;;82.37;38.07;;;;;;;-2.19;81.59;97157.52;506034;1150;102013;-39
2021/01/30 18:05:19;;;;;;;109.37;41.47;;;;;;;-2.16;81.48;97164.91;506165;1149;102567;-39
2021/01/30 18:25:47;;;;;;;67.20;30.47;;;;;;;-2.29;81.69;97167.39;505294;1150;102578;-39
2021/01/30 18:35:53;;;;;;;53.87;23.90;;;;;;;-2.33;81.23;97189.46;506075;1149;102316;-39
2021/01/30 18:45:58;;;;;;;41.83;20.97;;;;;;;-2.29;81.94;97194.08;506111;1149;102169;-39
2021/01/30 18:56:03;;;;;;;38.63;19.80;;;;;;;-2.27;81.77;97199.08;506136;1149;102318;-39
2021/01/30 19:06:08;;;;;;;71.00;31.03;;;;;;;-2.30;82.08;97205.42;506044;1149;103071;-39
2021/01/30 19:16:14;;;;;;;119.97;47.73;;;;;;;-2.32;81.88;97212.58;506067;1149;102429;-40
2021/01/30 19:26:19;;;;;;;58.97;28.60;;;;;;;-2.33;82.38;97223.11;505222;1149;102385;-39
2021/01/30 19:36:24;;;;;;;51.80;23.03;;;;;;;-2.38;81.64;97213.28;506030;1148;102458;-39
2021/01/30 19:57:13;;;;;;;36.37;17.70;;;;;;;-2.48;81.85;97215.38;504460;1151;104686;-39
2021/01/30 20:07:17;;;;;;;35.47;19.57;;;;;;;-2.47;81.47;97232.50;506107;1149;102451;-39
2021/01/30 20:17:22;;;;;;;44.00;18.50;;;;;;;-2.45;81.26;97232.31;506117;1149;102185;-39
2021/01/30 20:27:27;;;;;;;31.97;15.90;;;;;;;-2.46;81.65;97244.45;505000;1149;102017;-40
2021/01/30 20:37:32;;;;;;;42.90;18.57;;;;;;;-2.60;81.52;97240.13;506100;1149;102328;-39
2021/01/30 20:47:36;;;;;;;31.27;16.00;;;;;;;-2.69;80.79;97270.45;506060;1150;103187;-39
2021/01/30 20:57:41;;;;;;;37.90;16.30;;;;;;;-2.71;81.19;97269.83;506099;1149;102534;-39
2021/01/30 21:07:46;;;;;;;28.50;13.33;;;;;;;-2.80;80.60;97294.19;506096;1149;102351;-39
2021/01/30 21:17:50;;;;;;;28.13;12.03;;;;;;;-2.81;80.93;97285.63;506010;1149;102170;-39
2021/01/30 21:27:54;;;;;;;29.30;13.60;;;;;;;-2.87;81.04;97290.69;504984;1150;102421;-39
2021/01/30 21:37:59;;;;;;;30.73;15.37;;;;;;;-2.91;80.76;97312.72;506099;1149;103112;-39
2021/01/30 21:48:18;;;;;;;32.15;13.58;;;;;;;-2.90;80.54;97316.91;504584;1154;102865;-39
2021/01/30 21:58:22;;;;;;;56.40;23.93;;;;;;;-2.83;80.79;97326.39;506070;1149;102343;-39
2021/01/30 22:08:27;;;;;;;49.80;17.63;;;;;;;-2.75;80.97;97324.70;506089;1149;101995;-39
2021/01/30 22:18:32;;;;;;;39.00;18.40;;;;;;;-2.89;80.23;97321.10;506129;1149;101924;-39
2021/01/30 22:28:36;;;;;;;46.70;21.80;;;;;;;-3.07;80.40;97315.48;504835;1150;103180;-39
2021/01/30 22:38:41;;;;;;;33.40;14.10;;;;;;;-3.10;80.70;97319.19;506106;1149;102831;-38
2021/01/30 22:48:46;;;;;;;44.77;20.87;;;;;;;-3.28;80.12;97324.70;506120;1149;102611;-39
2021/01/30 22:58:50;;;;;;;23.87;11.37;;;;;;;-3.66;80.06;97330.78;506077;1149;102437;-39
2021/01/30 23:08:55;;;;;;;25.40;11.70;;;;;;;-3.87;80.13;97347.69;505086;1150;102655;-39
2021/01/30 23:19:00;;;;;;;20.03;10.43;;;;;;;-3.91;80.07;97356.76;506038;1149;103090;-39
2021/01/30 23:29:04;;;;;;;10.93;6.17;;;;;;;-3.98;79.63;97367.94;504814;1149;102467;-39
2021/01/30 23:39:09;;;;;;;9.10;4.17;;;;;;;-4.07;78.08;97365.38;506099;1150;102025;-39
2021/01/30 23:49:14;;;;;;;13.87;6.03;;;;;;;-4.15;77.50;97377.52;506065;1150;102419;-38
2021/01/30 23:59:19;;;;;;;10.50;4.10;;;;;;;-4.19;77.85;97384.80;506105;1150;102363;-39
